Time;durP1;ratioP1;P1;durP2;ratioP2;P2;SDS_P1;SDS_P2;PMS_P1;PMS_P2;Temp;Humidity;BMP_temperature;BMP_pressure;BME280_temperature;BME280_humidity;BME280_pressure;Samples;Min_cycle;Max_cycle;Signal;HPM_P1;HPM_P2
2021/10/09 00:00:12;;;;;;;17.20;5.00;;;;;;;3.17;67.15;101497.16;1753350;79;21084;-57
2021/10/09 00:02:39;;;;;;;10.90;4.83;;;;;;;3.16;67.20;101499.36;1758669;79;21424;-57
2021/10/09 00:05:07;;;;;;;7.23;3.60;;;;;;;3.14;67.25;101498.04;1763642;78;20945;-57
2021/10/09 00:07:35;;;;;;;8.57;3.30;;;;;;;3.15;67.27;101498.46;1762244;78;20934;-57
2021/10/09 00:10:04;;;;;;;7.33;2.40;;;;;;;3.18;67.25;101494.52;1758273;79;21078;-56
2021/10/09 00:12:29;;;;;;;8.47;2.80;;;;;;;3.21;67.34;101500.31;1762591;78;20921;-56
2021/10/09 00:14:56;;;;;;;11.43;3.43;;;;;;;3.24;67.42;101495.00;1764665;78;21004;-56
2021/10/09 00:17:24;;;;;;;6.67;2.87;;;;;;;3.29;67.51;101488.86;1761622;78;21042;-56
2021/10/09 00:19:50;;;;;;;9.00;3.60;;;;;;;3.35;67.60;101486.23;1756258;78;21486;-56
2021/10/09 00:22:17;;;;;;;7.13;3.37;;;;;;;3.40;67.62;101488.96;1760444;78;21083;-56
2021/10/09 00:24:43;;;;;;;13.00;3.60;;;;;;;3.45;67.58;101480.99;1773121;78;20989;-56
2021/10/09 00:27:10;;;;;;;9.33;3.43;;;;;;;3.47;67.44;101484.13;1760342;78;21005;-56
2021/10/09 00:29:36;;;;;;;7.60;3.50;;;;;;;3.50;67.30;101484.57;1758788;78;21068;-56
2021/10/09 00:32:04;;;;;;;8.67;3.50;;;;;;;3.49;67.35;101478.35;1755293;78;21084;-56
2021/10/09 00:34:30;;;;;;;5.20;3.47;;;;;;;3.50;67.53;101476.58;1755204;79;22325;-56
2021/10/09 00:36:57;;;;;;;3.80;3.40;;;;;;;3.52;67.67;101472.17;1755767;79;21542;-56
2021/10/09 00:39:23;;;;;;;5.07;4.13;;;;;;;3.52;67.82;101473.50;1756736;79;21036;-56
2021/10/09 00:41:49;;;;;;;8.90;4.20;;;;;;;3.50;67.95;101473.48;1767270;78;21013;-56
2021/10/09 00:44:16;;;;;;;9.27;3.33;;;;;;;3.50;68.04;101469.92;1759142;78;21060;-56
2021/10/09 00:46:44;;;;;;;8.13;3.10;;;;;;;3.51;68.05;101467.72;1761320;78;21146;-56
2021/10/09 00:49:15;;;;;;;7.90;2.23;;;;;;;3.54;68.13;101467.32;1766396;78;21052;-56
2021/10/09 00:51:39;;;;;;;6.23;2.43;;;;;;;3.56;68.14;101470.89;1768854;78;21328;-56
2021/10/09 00:54:05;;;;;;;9.00;3.50;;;;;;;3.61;68.10;101471.80;1764277;78;21625;-56
2021/10/09 00:56:34;;;;;;;5.43;2.30;;;;;;;3.64;68.05;101470.51;1766767;78;21057;-56
2021/10/09 00:59:00;;;;;;;10.13;3.57;;;;;;;3.69;68.04;101470.52;1770781;78;21189;-56
2021/10/09 01:01:26;;;;;;;10.10;3.23;;;;;;;3.71;67.97;101469.66;1763673;78;20941;-56
2021/10/09 01:03:53;;;;;;;9.30;4.37;;;;;;;3.75;67.83;101465.23;1745288;78;21086;-56
2021/10/09 01:06:20;;;;;;;12.90;3.07;;;;;;;3.77;67.75;101460.37;1770751;78;21060;-56
2021/10/09 01:08:46;;;;;;;9.53;3.70;;;;;;;3.76;67.60;101457.25;1765121;78;21111;-56
2021/10/09 01:11:13;;;;;;;9.17;3.63;;;;;;;3.73;67.47;101453.27;1763015;78;23335;-56
2021/10/09 01:13:40;;;;;;;7.40;3.37;;;;;;;3.71;67.34;101456.34;1764501;78;21111;-56
2021/10/09 01:16:23;;;;;;;5.03;2.93;;;;;;;3.67;67.23;101453.20;1768001;78;21116;-56
2021/10/09 01:18:51;;;;;;;5.00;3.37;;;;;;;3.63;67.15;101459.41;1765044;78;21142;-56
2021/10/09 01:21:17;;;;;;;8.13;2.80;;;;;;;3.60;67.12;101459.36;1747278;78;21068;-56
2021/10/09 01:23:46;;;;;;;6.97;4.03;;;;;;;3.58;67.11;101461.12;1769518;78;21112;-55
2021/10/09 01:26:12;;;;;;;10.00;3.67;;;;;;;3.56;67.09;101465.56;1764533;78;21071;-56
2021/10/09 01:28:43;;;;;;;4.70;2.80;;;;;;;3.52;67.33;101459.75;1765064;78;21116;-56
2021/10/09 01:31:10;;;;;;;6.33;2.43;;;;;;;3.51;67.58;101452.64;1770458;78;20980;-56
2021/10/09 01:33:36;;;;;;;6.07;2.80;;;;;;;3.51;67.81;101453.08;1769320;78;21111;-55
2021/10/09 01:36:04;;;;;;;5.60;2.37;;;;;;;3.51;67.99;101456.64;1768069;78;21119;-56
2021/10/09 01:38:35;;;;;;;5.10;2.47;;;;;;;3.54;68.11;101451.34;1764198;78;21033;-55
2021/10/09 01:41:01;;;;;;;6.70;2.07;;;;;;;3.57;68.12;101449.16;1771017;78;21511;-55
2021/10/09 01:43:28;;;;;;;10.73;3.13;;;;;;;3.58;68.12;101454.90;1768589;78;21021;-56
2021/10/09 01:45:55;;;;;;;10.07;2.77;;;;;;;3.59;68.05;101460.68;1765976;78;21712;-55
2021/10/09 01:48:32;;;;;;;7.40;3.53;;;;;;;3.59;67.98;101453.58;1758928;78;21656;-56
2021/10/09 01:51:00;;;;;;;7.17;3.33;;;;;;;3.59;67.90;101450.92;1759850;78;21135;-56
2021/10/09 01:53:27;;;;;;;6.30;3.10;;;;;;;3.59;67.88;101448.26;1759720;78;21052;-56
2021/10/09 01:55:53;;;;;;;10.30;3.37;;;;;;;3.60;67.69;101455.81;1754646;78;21067;-56
2021/10/09 01:58:20;;;;;;;12.00;3.20;;;;;;;3.58;67.56;101442.48;1759360;78;21068;-55
2021/10/09 02:00:47;;;;;;;5.10;2.63;;;;;;;3.56;67.43;101449.59;1756857;78;21104;-56
2021/10/09 02:03:16;;;;;;;6.23;3.20;;;;;;;3.56;67.31;101447.37;1764043;78;21326;-56
2021/10/09 02:05:42;;;;;;;5.90;2.43;;;;;;;3.54;67.06;101450.02;1762348;78;21032;-56
2021/10/09 02:08:08;;;;;;;6.97;2.57;;;;;;;3.49;67.01;101444.22;1758320;78;21143;-56
2021/10/09 02:10:43;;;;;;;4.77;2.17;;;;;;;3.44;67.00;101445.49;1756160;78;21503;-55
2021/10/09 02:13:07;;;;;;;9.43;2.53;;;;;;;3.41;67.01;101446.35;1758844;78;21551;-56
2021/10/09 02:15:39;;;;;;;8.90;2.27;;;;;;;3.38;67.04;101451.67;1762420;78;20918;-55
2021/10/09 02:18:24;;;;;;;6.30;2.83;;;;;;;3.37;67.03;101451.66;1767311;78;20898;-55
2021/10/09 02:26:03;;;;;;;8.03;3.17;;;;;;;3.32;67.16;101449.38;1757960;78;21062;-55
2021/10/09 02:28:31;;;;;;;6.27;2.80;;;;;;;3.28;67.33;101440.49;1736397;79;21354;-56
2021/10/09 02:30:57;;;;;;;8.27;2.77;;;;;;;3.27;67.38;101446.70;1755236;79;21541;-55
2021/10/09 02:36:02;;;;;;;6.57;2.37;;;;;;;3.32;67.29;101446.72;1866524;75;26454;-56
2021/10/09 02:38:29;;;;;;;10.27;2.47;;;;;;;3.30;67.13;101452.05;1837708;75;21935;-56
2021/10/09 02:40:55;;;;;;;7.67;2.37;;;;;;;3.31;66.95;101447.63;1835606;76;22081;-56
2021/10/09 02:43:22;;;;;;;8.77;2.27;;;;;;;3.32;66.68;101446.28;1831101;76;21004;-56
2021/10/09 02:45:49;;;;;;;8.53;3.00;;;;;;;3.34;66.58;101456.50;1836490;75;20964;-56
2021/10/09 02:48:16;;;;;;;13.03;3.90;;;;;;;3.36;66.36;101449.87;1834860;76;20939;-56
2021/10/09 02:50:45;;;;;;;7.10;2.83;;;;;;;3.36;66.31;101449.43;1837101;76;20945;-56
2021/10/09 02:53:13;;;;;;;10.63;2.97;;;;;;;3.36;66.23;101448.53;1834790;75;21117;-56
2021/10/09 02:55:39;;;;;;;7.43;3.47;;;;;;;3.35;66.04;101450.74;1834715;76;21031;-56
2021/10/09 02:58:06;;;;;;;12.50;3.90;;;;;;;3.32;65.83;101454.27;1834467;75;21087;-56
2021/10/09 03:00:33;;;;;;;9.93;3.00;;;;;;;3.29;65.72;101449.38;1835138;76;21475;-56
2021/10/09 03:03:00;;;;;;;8.53;2.70;;;;;;;3.25;65.70;101448.88;1836757;76;21095;-56
2021/10/09 03:05:26;;;;;;;10.47;3.03;;;;;;;3.20;65.68;101449.30;1837081;76;22599;-56
2021/10/09 03:07:53;;;;;;;6.57;3.10;;;;;;;3.15;65.61;101451.03;1838581;75;20878;-56
2021/10/09 03:10:20;;;;;;;6.47;2.33;;;;;;;3.08;65.77;101453.16;1838814;76;20851;-55
2021/10/09 03:12:47;;;;;;;6.40;2.57;;;;;;;3.02;65.94;101449.58;1841857;75;21402;-56
2021/10/09 03:17:38;;;;;;;9.13;2.60;;;;;;;2.99;66.06;101458.85;1775346;78;26605;-56
2021/10/09 03:20:08;;;;;;;7.60;2.23;;;;;;;2.91;66.11;101453.00;1738440;80;20981;-56
2021/10/09 03:22:35;;;;;;;5.77;2.20;;;;;;;2.90;66.13;101450.78;1744390;80;22214;-55
2021/10/09 03:25:03;;;;;;;5.97;1.87;;;;;;;2.89;66.14;101454.31;1741060;79;20930;-55
2021/10/09 03:27:29;;;;;;;7.97;2.33;;;;;;;2.90;66.13;101456.09;1704240;81;21419;-55
2021/10/09 03:29:56;;;;;;;5.37;2.40;;;;;;;2.90;66.12;101449.89;1709863;81;20878;-55
2021/10/09 03:32:22;;;;;;;6.13;3.10;;;;;;;2.89;66.20;101446.33;1704015;81;21007;-55
2021/10/09 03:34:50;;;;;;;10.57;2.33;;;;;;;2.88;66.19;101445.91;1672627;83;20934;-55
2021/10/09 03:37:17;;;;;;;6.70;2.20;;;;;;;2.87;66.11;101448.55;1683848;82;21013;-55
2021/10/09 03:39:46;;;;;;;6.97;2.93;;;;;;;2.83;66.08;101445.39;1681532;82;21001;-55
2021/10/09 03:42:16;;;;;;;9.77;2.73;;;;;;;2.80;66.14;101444.95;1684676;82;21493;-55
2021/10/09 03:44:47;;;;;;;8.33;3.33;;;;;;;2.76;66.14;101449.77;1679319;82;21540;-55
2021/10/09 03:47:33;;;;;;;12.37;2.47;;;;;;;2.70;66.18;101445.72;1682069;82;21248;-55
2021/10/09 03:52:41;;;;;;;7.13;2.43;;;;;;;2.59;66.17;101455.33;1677950;82;21683;-55
2021/10/09 03:55:14;;;;;;;7.92;2.70;;;;;;;2.51;66.19;101462.33;1682717;82;28264;-55
2021/10/09 03:57:43;;;;;;;6.53;2.77;;;;;;;2.42;66.33;101459.56;1683344;82;20970;-55
2021/10/09 04:00:12;;;;;;;12.27;3.17;;;;;;;2.36;66.43;101462.16;1689261;82;21110;-54
2021/10/09 04:02:42;;;;;;;10.07;2.80;;;;;;;2.31;66.55;101461.19;1685259;82;21017;-54
2021/10/09 04:05:10;;;;;;;6.87;2.43;;;;;;;2.27;66.66;101466.92;1686255;82;20926;-54
2021/10/09 04:07:36;;;;;;;6.57;2.73;;;;;;;2.22;66.68;101462.86;1683092;82;21511;-54
2021/10/09 04:10:04;;;;;;;9.70;2.83;;;;;;;2.20;66.71;101469.95;1688890;82;21069;-54
2021/10/09 04:12:30;;;;;;;13.23;2.10;;;;;;;2.16;66.72;101470.77;1684474;82;22120;-55
2021/10/09 04:14:57;;;;;;;10.90;2.10;;;;;;;2.12;66.79;101472.05;1680967;82;21318;-55
2021/10/09 04:17:24;;;;;;;10.90;3.07;;;;;;;2.08;66.85;101475.52;1675135;82;22391;-54
2021/10/09 04:19:51;;;;;;;9.90;2.50;;;;;;;2.04;66.98;101477.22;1670033;83;22508;-55
2021/10/09 04:22:17;;;;;;;13.87;2.50;;;;;;;2.01;67.07;101478.53;1673867;83;21120;-54
2021/10/09 04:24:44;;;;;;;8.67;2.17;;;;;;;2.00;67.18;101476.75;1674684;83;21160;-54
2021/10/09 04:27:11;;;;;;;11.17;3.17;;;;;;;1.97;67.25;101475.36;1681297;83;21073;-54
2021/10/09 04:29:38;;;;;;;13.27;2.80;;;;;;;1.96;67.35;101482.01;1674073;83;20953;-54
2021/10/09 04:32:06;;;;;;;19.00;2.90;;;;;;;1.94;67.44;101485.07;1669455;83;21153;-55
2021/10/09 04:34:33;;;;;;;11.83;2.50;;;;;;;1.93;67.47;101491.25;1673405;83;21105;-55
2021/10/09 04:37:00;;;;;;;20.60;3.70;;;;;;;1.92;67.55;101483.72;1668496;83;21145;-55
2021/10/09 04:39:28;;;;;;;7.63;2.33;;;;;;;1.91;67.58;101493.88;1687519;82;21121;-54
2021/10/09 04:41:55;;;;;;;9.93;3.40;;;;;;;1.92;67.59;101490.78;1720716;80;21078;-54
2021/10/09 04:44:22;;;;;;;10.77;2.67;;;;;;;1.92;67.54;101490.35;1690200;82;21100;-55
2021/10/09 04:46:49;;;;;;;5.67;2.03;;;;;;;1.92;67.56;101486.80;1719614;80;21682;-55
2021/10/09 04:49:17;;;;;;;6.10;2.73;;;;;;;1.91;67.62;101495.20;1717417;80;23164;-55
2021/10/09 04:51:44;;;;;;;13.70;3.47;;;;;;;1.93;67.69;101496.56;1716999;80;21358;-55
2021/10/09 04:54:10;;;;;;;10.00;3.10;;;;;;;1.96;67.74;101496.62;1715203;80;21491;-55
2021/10/09 04:56:37;;;;;;;9.83;3.33;;;;;;;2.00;67.82;101493.11;1721637;80;21063;-55
2021/10/09 04:59:06;;;;;;;7.80;3.03;;;;;;;2.01;67.70;101490.48;1718692;81;21059;-55
2021/10/09 05:01:32;;;;;;;15.60;3.83;;;;;;;2.05;67.82;101498.94;1715932;81;22740;-55
2021/10/09 05:03:59;;;;;;;15.57;3.97;;;;;;;2.10;67.94;101495.03;1718589;80;21674;-55
2021/10/09 05:06:26;;;;;;;13.73;4.10;;;;;;;2.15;67.72;101494.21;1721926;80;22207;-56
2021/10/09 05:08:52;;;;;;;18.10;5.57;;;;;;;2.22;67.55;101493.41;1719468;80;21622;-56
2021/10/09 05:11:19;;;;;;;16.43;5.37;;;;;;;2.34;67.23;101490.03;1716761;80;21627;-55
2021/10/09 05:13:47;;;;;;;17.83;5.43;;;;;;;2.49;67.04;101489.33;1722832;80;21113;-55
2021/10/09 05:16:14;;;;;;;14.13;6.00;;;;;;;2.65;66.65;101486.86;1717399;80;21125;-54
2021/10/09 05:18:41;;;;;;;16.30;6.23;;;;;;;2.85;66.25;101483.54;1720775;80;21468;-56
2021/10/09 05:21:08;;;;;;;20.77;6.90;;;;;;;3.02;65.53;101485.50;1719586;80;21323;-55
2021/10/09 05:23:36;;;;;;;28.27;6.33;;;;;;;3.14;65.13;101482.08;1725407;80;21037;-55
2021/10/09 05:26:04;;;;;;;17.70;5.90;;;;;;;3.25;64.60;101482.14;1732393;80;23300;-55
2021/10/09 05:28:46;;;;;;;17.30;4.90;;;;;;;3.31;64.08;101483.55;1722769;80;21102;-55
2021/10/09 05:31:27;;;;;;;15.80;4.90;;;;;;;3.37;63.74;101488.48;1722658;80;21649;-55
2021/10/09 05:33:54;;;;;;;14.00;4.90;;;;;;;3.45;63.34;101488.55;1723916;80;21101;-55
2021/10/09 05:36:22;;;;;;;22.67;5.57;;;;;;;3.51;62.93;101490.35;1720600;80;21168;-55
2021/10/09 05:38:49;;;;;;;15.37;4.20;;;;;;;3.56;62.65;101490.86;1727245;80;21051;-55
2021/10/09 05:41:16;;;;;;;13.03;5.53;;;;;;;3.63;62.24;101491.80;1726727;80;21068;-55
2021/10/09 05:43:45;;;;;;;19.60;4.60;;;;;;;3.68;62.04;101487.37;1723854;80;21260;-55
2021/10/09 05:46:12;;;;;;;10.47;4.73;;;;;;;3.74;61.82;101489.64;1722961;80;21045;-56
2021/10/09 05:48:40;;;;;;;13.20;4.63;;;;;;;3.80;61.61;101486.14;1727001;80;20867;-55
2021/10/09 05:51:18;;;;;;;17.57;4.60;;;;;;;3.85;61.41;101484.39;1727889;80;21146;-56
2021/10/09 05:58:49;;;;;;;12.10;4.37;;;;;;;3.99;60.88;101480.50;1729271;80;20926;-55
2021/10/09 06:42:24;;;;;;;18.92;5.00;;;;;;;5.17;56.75;101505.39;1711643;81;21070;-56
2021/10/09 06:47:22;;;;;;;11.80;4.47;;;;;;;5.29;56.30;101511.61;1711748;81;21107;-54
2021/10/09 07:00:39;;;;;;;12.50;3.17;;;;;;;5.89;54.70;101511.64;1700157;81;21061;-55
2021/10/09 07:03:06;;;;;;;9.57;3.27;;;;;;;5.98;54.12;101509.85;1707401;81;21086;-54
2021/10/09 07:05:34;;;;;;;17.23;3.10;;;;;;;6.05;53.95;101508.05;1707977;81;21050;-56
2021/10/09 07:08:09;;;;;;;9.17;2.57;;;;;;;6.13;52.84;101507.59;1707106;81;21105;-55
2021/10/09 07:10:42;;;;;;;13.97;2.50;;;;;;;6.19;52.05;101506.70;1713529;81;22574;-55
2021/10/09 07:13:09;;;;;;;12.13;2.87;;;;;;;6.28;51.61;101510.69;1710677;81;21057;-54
2021/10/09 07:15:35;;;;;;;12.77;2.63;;;;;;;6.38;51.18;101503.95;1712742;81;21020;-55
2021/10/09 07:18:03;;;;;;;12.00;1.77;;;;;;;6.49;50.63;101498.56;1710622;81;21019;-54
2021/10/09 07:20:30;;;;;;;8.83;1.50;;;;;;;6.58;50.40;101505.22;1725862;80;21116;-53
2021/10/09 07:22:56;;;;;;;5.37;1.40;;;;;;;6.70;49.77;101504.29;1726311;80;22652;-55
2021/10/09 07:25:23;;;;;;;9.60;1.67;;;;;;;6.81;49.00;101497.07;1722175;80;21046;-54
2021/10/09 07:27:49;;;;;;;8.80;1.30;;;;;;;6.93;48.39;101494.34;1723093;80;21429;-54
2021/10/09 07:30:17;;;;;;;8.23;1.80;;;;;;;7.05;47.95;101501.42;1727178;80;21077;-54
2021/10/09 07:32:44;;;;;;;5.07;1.13;;;;;;;7.14;47.45;101492.00;1728052;80;20971;-54
2021/10/09 07:35:12;;;;;;;8.53;1.40;;;;;;;7.23;47.04;101495.47;1725055;80;22243;-54
2021/10/09 07:37:40;;;;;;;4.30;1.27;;;;;;;7.33;47.03;101493.62;1726794;80;22637;-54
2021/10/09 07:40:08;;;;;;;11.30;2.63;;;;;;;7.44;46.62;101489.53;1722811;80;21795;-55
2021/10/09 07:42:34;;;;;;;10.13;1.87;;;;;;;7.54;46.73;101492.58;1706892;82;21041;-54
2021/10/09 07:45:01;;;;;;;13.57;2.13;;;;;;;7.68;46.30;101493.78;1721643;80;21113;-55
2021/10/09 07:47:27;;;;;;;4.87;1.20;;;;;;;7.79;46.06;101494.14;1721622;80;21129;-55
2021/10/09 07:49:53;;;;;;;8.50;1.30;;;;;;;7.88;45.69;101487.35;1738510;80;21088;-54
2021/10/09 07:52:20;;;;;;;8.77;1.40;;;;;;;7.96;45.11;101494.87;1723547;80;21042;-54
2021/10/09 07:54:46;;;;;;;6.53;2.73;;;;;;;8.04;44.98;101495.23;1721320;80;21379;-55
2021/10/09 07:57:12;;;;;;;14.20;2.20;;;;;;;8.09;44.92;101487.56;1717186;80;21590;-55
2021/10/09 07:59:39;;;;;;;5.63;1.50;;;;;;;8.19;44.07;101485.23;1726192;80;21589;-56
2021/10/09 08:02:05;;;;;;;3.00;1.40;;;;;;;8.26;44.08;101484.25;1722219;80;21017;-56
2021/10/09 08:04:33;;;;;;;10.07;1.30;;;;;;;8.33;43.90;101489.15;1724136;80;21077;-55
2021/10/09 08:07:00;;;;;;;7.03;1.40;;;;;;;8.40;43.40;101480.11;1723957;80;21499;-55
2021/10/09 08:09:30;;;;;;;10.40;1.40;;;;;;;8.49;43.04;101479.11;1720366;80;21524;-55
2021/10/09 08:11:54;;;;;;;8.97;1.93;;;;;;;8.56;42.80;101477.67;1724024;80;21161;-55
2021/10/09 08:14:21;;;;;;;9.23;4.17;;;;;;;8.64;43.11;101478.91;1721562;80;21065;-56
2021/10/09 08:16:48;;;;;;;3.23;1.23;;;;;;;8.75;43.06;101476.09;1722529;80;21078;-55
2021/10/09 08:19:14;;;;;;;2.57;1.03;;;;;;;8.84;42.37;101474.63;1722556;80;21453;-55
2021/10/09 08:21:44;;;;;;;7.13;1.60;;;;;;;8.93;41.86;101471.33;1716587;81;21121;-55
2021/10/09 08:40:13;;;;;;;5.15;0.90;;;;;;;9.37;39.66;101472.45;1712456;81;21466;-56
2021/10/09 08:42:40;;;;;;;8.23;1.10;;;;;;;9.41;39.18;101468.83;1707823;81;21126;-55
2021/10/09 08:45:07;;;;;;;4.23;0.80;;;;;;;9.45;39.58;101472.77;1706219;81;21280;-54
2021/10/09 08:47:34;;;;;;;3.63;0.70;;;;;;;9.55;39.34;101476.20;1718128;81;21674;-55
2021/10/09 08:50:02;;;;;;;7.13;0.83;;;;;;;9.64;38.44;101466.63;1716947;81;22164;-55
2021/10/09 08:52:29;;;;;;;0.90;0.60;;;;;;;9.70;38.33;101463.83;1710560;81;21370;-55
2021/10/09 08:54:56;;;;;;;1.73;0.60;;;;;;;9.76;38.34;101465.54;1712723;81;21753;-56
2021/10/09 08:57:25;;;;;;;1.60;0.60;;;;;;;9.82;36.79;101454.20;1719038;81;20911;-56
2021/10/09 09:00:04;;;;;;;3.00;0.50;;;;;;;9.87;36.45;101456.34;1718535;81;20904;-55
2021/10/09 09:02:37;;;;;;;2.80;0.50;;;;;;;9.96;36.49;101451.70;1713807;81;21126;-54
2021/10/09 09:05:07;;;;;;;0.87;0.40;;;;;;;10.05;36.41;101449.73;1715966;81;21450;-56
2021/10/09 09:27:17;;;;;;;2.87;0.53;;;;;;;10.63;32.26;101446.77;1722386;80;21405;-55
2021/10/09 09:35:15;;;;;;;2.77;0.40;;;;;;;10.82;31.79;101435.59;1717306;80;20959;-55
2021/10/09 09:37:43;;;;;;;1.98;0.40;;;;;;;10.85;31.88;101432.84;1723585;80;21025;-57
2021/10/09 09:40:11;;;;;;;3.10;0.70;;;;;;;10.93;31.46;101430.40;1717193;80;21058;-55
2021/10/09 09:42:45;;;;;;;3.45;0.40;;;;;;;10.96;31.33;101435.73;1716418;80;22110;-54
2021/10/09 09:45:14;;;;;;;5.83;0.40;;;;;;;10.99;31.36;101435.64;1720041;80;20948;-56
2021/10/09 09:47:41;;;;;;;2.50;0.35;;;;;;;10.99;30.77;101430.25;1694990;80;21081;-58
2021/10/09 09:50:10;;;;;;;2.50;0.60;;;;;;;10.99;29.82;101426.66;1715890;80;21042;-54
2021/10/09 09:52:39;;;;;;;5.70;0.60;;;;;;;10.99;30.42;101434.74;1718481;80;21344;-56
2021/10/09 09:55:09;;;;;;;2.37;0.50;;;;;;;11.02;30.27;101425.72;1717999;80;21653;-56
2021/10/09 09:57:36;;;;;;;0.70;0.37;;;;;;;11.06;30.35;101422.04;1719113;80;21068;-56
2021/10/09 10:00:08;;;;;;;2.85;0.40;;;;;;;11.12;30.17;101417.38;1715729;80;21739;-56
2021/10/09 10:02:56;;;;;;;0.55;0.30;;;;;;;11.18;29.85;101429.36;1719446;80;20904;-56
2021/10/09 10:05:26;;;;;;;1.77;0.40;;;;;;;11.24;29.88;101413.48;1719742;80;20911;-56
2021/10/09 10:07:53;;;;;;;5.05;0.40;;;;;;;11.29;30.19;101408.42;1719482;80;21109;-55
2021/10/09 10:10:20;;;;;;;1.17;0.45;;;;;;;11.37;30.04;101423.95;1714338;80;22201;-56
2021/10/09 10:12:51;;;;;;;0.82;0.45;;;;;;;11.43;29.72;101409.87;1717358;80;21361;-56
2021/10/09 10:15:18;;;;;;;3.92;0.80;;;;;;;11.46;28.99;101414.73;1698397;80;21582;-57
2021/10/09 10:17:47;;;;;;;2.10;0.50;;;;;;;11.39;28.58;101411.78;1719321;80;21500;-54
2021/10/09 10:20:15;;;;;;;2.33;0.50;;;;;;;11.32;29.63;101412.37;1719752;80;21874;-55
2021/10/09 10:22:49;;;;;;;0.55;0.40;;;;;;;11.33;29.22;101417.30;1722580;80;21053;-54
2021/10/09 10:25:31;;;;;;;4.58;0.40;;;;;;;11.33;28.77;101408.75;1723370;80;21061;-56
2021/10/09 10:28:05;;;;;;;1.75;0.40;;;;;;;11.35;29.04;101404.22;1727836;80;20891;-55
2021/10/09 10:30:34;;;;;;;2.75;0.50;;;;;;;11.40;29.10;101404.58;1731295;80;20896;-57
2021/10/09 10:33:10;;;;;;;1.82;0.40;;;;;;;11.41;28.74;101397.77;1722247;80;21572;-55
2021/10/09 10:35:43;;;;;;;2.20;0.40;;;;;;;11.42;28.89;101404.94;1720535;80;22477;-56
2021/10/09 10:38:25;;;;;;;0.50;0.30;;;;;;;11.43;29.05;101401.78;1731742;80;21005;-56
2021/10/09 10:41:00;;;;;;;2.15;0.50;;;;;;;11.44;29.32;101395.47;1723462;80;21108;-57
2021/10/09 10:43:38;;;;;;;4.00;0.40;;;;;;;11.46;29.30;101394.52;1721677;80;21156;-56
2021/10/09 10:46:34;;;;;;;1.12;0.40;;;;;;;11.45;29.27;101391.39;1721412;80;21095;-56
2021/10/09 10:57:02;;;;;;;2.77;0.40;;;;;;;11.41;29.06;101386.98;1722953;80;21104;-58
2021/10/09 10:59:57;;;;;;;1.62;0.50;;;;;;;11.42;29.22;101386.52;1719534;80;21069;-57
2021/10/09 11:02:39;;;;;;;1.10;0.50;;;;;;;11.45;29.64;101381.95;1723097;80;21010;-57
2021/10/09 11:05:11;;;;;;;0.93;0.50;;;;;;;11.50;28.98;101381.81;1723467;80;20948;-56
2021/10/09 11:07:39;;;;;;;4.40;1.75;;;;;;;11.49;28.70;101384.09;1722584;80;21041;-58
2021/10/09 11:10:16;;;;;;;2.30;0.65;;;;;;;11.47;28.34;101382.80;1721634;80;21085;-57
2021/10/09 11:12:50;;;;;;;4.35;0.85;;;;;;;11.46;28.68;101379.69;1721148;80;21550;-57
2021/10/09 11:15:26;;;;;;;6.08;0.45;;;;;;;11.50;28.24;101373.27;1726733;82;21538;-57
2021/10/09 11:17:59;;;;;;;1.80;1.25;;;;;;;11.53;28.63;101375.00;1727680;80;20981;-57
2021/10/09 11:20:32;;;;;;;5.55;0.70;;;;;;;11.57;28.65;101365.92;1723100;80;21146;-57
2021/10/09 11:23:11;;;;;;;3.70;0.60;;;;;;;11.61;28.42;101371.18;1723186;80;21423;-57
2021/10/09 11:25:40;;;;;;;16.75;3.80;;;;;;;11.64;28.54;101367.06;1723812;80;21547;-57
2021/10/09 11:28:25;;;;;;;4.35;0.98;;;;;;;11.68;28.75;101359.29;1725624;80;20926;-57
2021/10/09 11:30:51;;;;;;;1.20;0.50;;;;;;;11.70;28.90;101363.30;1662459;83;21136;-58
2021/10/09 11:33:25;;;;;;;2.75;0.80;;;;;;;11.73;28.33;101363.23;1726818;80;21522;-56
2021/10/09 11:35:51;;;;;;;3.87;0.60;;;;;;;11.73;27.91;101356.48;1723898;80;21112;-58
2021/10/09 11:38:21;;;;;;;1.10;0.60;;;;;;;11.72;28.03;101359.64;1724592;80;22086;-58
2021/10/09 11:40:52;;;;;;;5.97;0.80;;;;;;;11.74;28.48;101366.31;1722635;80;22278;-57
2021/10/09 11:43:30;;;;;;;5.53;1.07;;;;;;;11.78;28.79;101364.01;1722737;80;21053;-57
2021/10/09 11:46:09;;;;;;;4.75;1.87;;;;;;;11.82;27.68;101363.02;1722177;80;21121;-57
2021/10/09 11:56:44;;;;;;;8.83;4.53;;;;;;;11.74;27.77;101347.01;1692066;82;21148;-57
2021/10/09 11:59:11;;;;;;;25.60;15.35;;;;;;;11.73;27.70;101351.09;1726653;80;21342;-57
2021/10/09 12:01:43;;;;;;;13.03;7.12;;;;;;;11.71;27.50;101340.80;1727479;80;21061;-57
2021/10/09 12:04:20;;;;;;;6.47;3.55;;;;;;;11.68;27.58;101347.16;1730407;80;21092;-56
2021/10/09 12:07:01;;;;;;;14.85;4.70;;;;;;;11.65;27.64;101339.13;1728400;80;20958;-57
2021/10/09 12:09:45;;;;;;;3.58;1.20;;;;;;;11.67;27.67;101341.80;1730053;80;20964;-57
2021/10/09 12:12:23;;;;;;;5.78;2.45;;;;;;;11.67;27.58;101336.40;1727614;80;20994;-56
2021/10/09 12:14:51;;;;;;;2.83;0.53;;;;;;;11.67;27.54;101337.75;1721833;80;21045;-56
2021/10/09 12:17:20;;;;;;;6.72;1.02;;;;;;;11.66;27.20;101335.52;1724169;80;22004;-56
2021/10/09 12:20:03;;;;;;;4.62;0.93;;;;;;;11.67;27.17;101331.89;1728646;80;20864;-56
2021/10/09 12:22:42;;;;;;;7.25;2.27;;;;;;;11.67;27.06;101330.55;1712336;81;20955;-57
2021/10/09 12:25:22;;;;;;;3.15;0.72;;;;;;;11.64;26.53;101331.11;1710628;81;22358;-58
2021/10/09 12:27:59;;;;;;;4.80;1.00;;;;;;;11.60;27.05;101325.36;1711346;81;21039;-56
2021/10/09 12:30:47;;;;;;;2.87;0.78;;;;;;;11.59;27.33;101324.48;1708648;81;22360;-57
2021/10/09 12:33:37;;;;;;;2.35;0.70;;;;;;;11.60;27.75;101329.41;1709542;81;21081;-58
2021/10/09 12:36:39;;;;;;;2.22;0.60;;;;;;;11.60;26.82;101329.41;1709586;81;21559;-56
2021/10/09 12:39:22;;;;;;;3.08;0.53;;;;;;;11.57;27.14;101322.77;1711617;81;21520;-57
2021/10/09 12:41:53;;;;;;;1.15;0.50;;;;;;;11.56;26.96;101325.05;1707779;81;21069;-56
2021/10/09 12:44:20;;;;;;;1.07;0.40;;;;;;;11.56;27.51;101319.66;1705165;81;22914;-57
2021/10/09 12:46:46;;;;;;;4.67;0.40;;;;;;;11.58;27.47;101319.13;1714368;81;21543;-56
2021/10/09 12:49:13;;;;;;;1.35;0.80;;;;;;;11.59;27.67;101315.03;1716504;81;22309;-56
2021/10/09 12:51:42;;;;;;;0.90;0.50;;;;;;;11.62;27.50;101314.08;1709786;82;21092;-55
2021/10/09 12:54:09;;;;;;;1.65;0.40;;;;;;;11.63;27.36;101315.85;1715985;82;21355;-58
2021/10/09 12:56:59;;;;;;;4.78;0.50;;;;;;;11.65;27.44;101312.16;1713588;82;21304;-54
2021/10/09 12:59:31;;;;;;;5.08;0.90;;;;;;;11.66;27.55;101311.23;1649830;84;21214;-55
2021/10/09 13:01:58;;;;;;;3.72;0.50;;;;;;;11.67;26.95;101318.41;1690994;82;21098;-57
2021/10/09 13:04:24;;;;;;;8.43;0.57;;;;;;;11.66;27.17;101315.75;1706779;82;21105;-56
2021/10/09 13:06:51;;;;;;;2.17;0.60;;;;;;;11.65;27.34;101312.66;1708849;81;21070;-57
2021/10/09 13:09:17;;;;;;;2.10;0.50;;;;;;;11.66;26.85;101310.35;1708395;82;21069;-56
2021/10/09 13:11:48;;;;;;;4.40;0.68;;;;;;;11.66;27.20;101307.66;1710627;82;21090;-54
2021/10/09 13:14:14;;;;;;;3.92;0.60;;;;;;;11.64;27.32;101311.77;1707368;82;21082;-55
2021/10/09 13:16:41;;;;;;;2.95;1.42;;;;;;;11.64;27.36;101309.08;1707958;82;21058;-56
2021/10/09 13:19:07;;;;;;;5.20;0.80;;;;;;;11.65;27.24;101302.72;1708249;82;21110;-54
2021/10/09 13:21:33;;;;;;;6.85;4.00;;;;;;;11.66;27.16;101312.59;1714796;82;21057;-55
2021/10/09 13:24:00;;;;;;;1.70;0.80;;;;;;;11.68;27.22;101305.80;1723959;82;21112;-55
2021/10/09 13:26:26;;;;;;;21.82;12.85;;;;;;;11.69;26.90;101302.19;1721929;82;21112;-58
2021/10/09 13:28:52;;;;;;;5.60;2.67;;;;;;;11.70;26.94;101306.19;1724550;82;21084;-57
2021/10/09 13:31:20;;;;;;;10.53;1.20;;;;;;;11.70;26.86;101298.10;1722227;82;21621;-56
2021/10/09 13:33:46;;;;;;;6.03;1.45;;;;;;;11.73;26.96;101301.19;1724475;82;21869;-57
2021/10/09 13:36:13;;;;;;;5.28;0.90;;;;;;;11.72;26.99;101297.60;1724982;82;21049;-57
2021/10/09 13:38:39;;;;;;;1.55;0.68;;;;;;;11.72;26.81;101294.02;1725878;81;21574;-55
2021/10/09 13:41:05;;;;;;;0.80;0.40;;;;;;;11.71;27.12;101298.98;1723463;80;21595;-57
2021/10/09 13:43:32;;;;;;;4.65;2.83;;;;;;;11.69;26.82;101302.19;1728071;80;21319;-56
2021/10/09 13:45:58;;;;;;;2.02;0.50;;;;;;;11.66;26.73;101306.30;1719625;82;21133;-57
2021/10/09 13:48:24;;;;;;;6.05;1.15;;;;;;;11.63;26.32;101296.97;1719451;82;21104;-56